createdAt,value
2022-09-09T00:00:00.141Z,994.46
2022-09-09T00:05:00.114Z,994.53
2022-09-09T00:10:00.111Z,994.44
2022-09-09T00:15:00.134Z,994.47
2022-09-09T00:20:00.123Z,994.49
2022-09-09T00:25:00.088Z,994.54
2022-09-09T00:30:00.122Z,994.51
2022-09-09T00:35:00.150Z,994.51
2022-09-09T00:40:00.247Z,994.54
2022-09-09T00:45:00.111Z,994.51
2022-09-09T00:50:01.330Z,994.46
2022-09-09T00:55:00.140Z,994.5
2022-09-09T01:00:00.151Z,994.39
2022-09-09T01:05:00.109Z,994.37
2022-09-09T01:10:00.103Z,994.34
2022-09-09T01:15:00.138Z,994.36
2022-09-09T01:20:00.100Z,994.44
2022-09-09T01:25:00.087Z,994.46
2022-09-09T01:30:00.159Z,994.41
2022-09-09T01:35:00.146Z,994.4
2022-09-09T01:40:00.225Z,994.33
2022-09-09T01:45:00.108Z,994.31
2022-09-09T01:50:00.107Z,994.38
2022-09-09T01:55:00.121Z,994.35
2022-09-09T02:00:00.139Z,994.36
2022-09-09T02:05:00.096Z,994.32
2022-09-09T02:10:00.108Z,994.37
2022-09-09T02:15:00.148Z,994.38
2022-09-09T02:20:00.096Z,994.41
2022-09-09T02:25:00.082Z,994.33
2022-09-09T02:30:00.116Z,994.36
2022-09-09T02:35:00.113Z,994.57
2022-09-09T02:40:00.194Z,994.56
2022-09-09T02:45:00.127Z,994.47
2022-09-09T02:50:00.100Z,994.51
2022-09-09T02:55:00.123Z,994.42
2022-09-09T03:00:00.143Z,994.44
2022-09-09T03:05:00.095Z,994.44
2022-09-09T03:10:00.114Z,994.56
2022-09-09T03:15:00.129Z,994.5
2022-09-09T03:20:00.092Z,994.57
2022-09-09T03:25:00.083Z,994.58
2022-09-09T03:30:00.103Z,994.56
2022-09-09T03:35:00.121Z,994.5
2022-09-09T03:40:00.211Z,994.49
2022-09-09T03:45:00.114Z,994.5
2022-09-09T03:50:00.087Z,994.41
2022-09-09T03:55:00.129Z,994.4
2022-09-09T04:00:00.134Z,994.43
2022-09-09T04:05:00.092Z,994.4
2022-09-09T04:10:00.130Z,994.42
2022-09-09T04:15:00.144Z,994.44
2022-09-09T04:20:00.087Z,994.42
2022-09-09T04:25:00.105Z,994.44
2022-09-09T04:30:00.141Z,994.51
2022-09-09T04:35:00.109Z,994.46
2022-09-09T04:40:00.175Z,994.51
2022-09-09T04:45:00.106Z,994.57
2022-09-09T04:50:00.077Z,994.57
2022-09-09T04:55:00.139Z,994.52
2022-09-09T05:00:00.102Z,994.45
2022-09-09T05:05:00.109Z,994.52
2022-09-09T05:10:00.081Z,994.62
2022-09-09T05:15:00.151Z,994.64
2022-09-09T05:20:00.092Z,994.58
2022-09-09T05:25:00.094Z,994.57
2022-09-09T05:30:00.114Z,994.7
2022-09-09T05:35:00.131Z,994.73
2022-09-09T05:40:00.218Z,994.81
2022-09-09T05:45:00.103Z,994.75
2022-09-09T05:50:00.113Z,994.75
2022-09-09T05:55:00.108Z,994.68
2022-09-09T06:00:00.126Z,994.77
2022-09-09T06:05:00.778Z,994.7
2022-09-09T06:10:00.085Z,994.79
2022-09-09T06:15:00.138Z,994.76
2022-09-09T06:20:00.115Z,994.88
2022-09-09T06:25:00.095Z,994.81
2022-09-09T06:30:00.113Z,994.82
2022-09-09T06:35:00.115Z,994.8
2022-09-09T06:40:00.185Z,994.84
2022-09-09T06:45:00.105Z,994.87
2022-09-09T06:50:00.104Z,994.83
2022-09-09T06:55:00.115Z,994.89
2022-09-09T07:00:00.137Z,994.84
2022-09-09T07:05:00.086Z,994.9
2022-09-09T07:10:00.102Z,995
2022-09-09T07:15:00.144Z,995.03
2022-09-09T07:20:00.107Z,995.02
2022-09-09T07:25:00.091Z,995.02
2022-09-09T07:30:00.149Z,994.95
2022-09-09T07:35:00.131Z,994.88
2022-09-09T07:40:00.252Z,994.86
2022-09-09T07:45:00.102Z,995.01
2022-09-09T07:50:00.091Z,995.03
2022-09-09T07:55:01.315Z,994.94
2022-09-09T08:00:00.150Z,994.95
2022-09-09T08:05:00.085Z,995.13
2022-09-09T08:10:00.130Z,995.25
2022-09-09T08:15:00.150Z,995.2
2022-09-09T08:20:00.119Z,995.19
2022-09-09T08:25:00.113Z,995.21
2022-09-09T08:30:00.100Z,995.19
2022-09-09T08:35:01.567Z,995.27
2022-09-09T08:40:00.179Z,995.15
2022-09-09T08:45:00.087Z,995.21
2022-09-09T08:50:00.102Z,995.23
2022-09-09T08:55:00.108Z,995.34
2022-09-09T09:00:00.141Z,995.35
2022-09-09T09:05:00.240Z,995.46
2022-09-09T09:10:00.102Z,995.32
2022-09-09T09:15:00.133Z,995.33
2022-09-09T09:20:00.087Z,995.33
2022-09-09T09:25:00.106Z,995.3
2022-09-09T09:35:00.111Z,995.32
2022-09-09T09:45:00.099Z,995.18
2022-09-09T09:50:00.073Z,995.17
2022-09-09T09:55:02.834Z,995.22
2022-09-09T10:00:00.090Z,995.22
2022-09-09T10:05:00.168Z,995.21
2022-09-09T10:10:00.106Z,995.22
2022-09-09T10:15:00.114Z,995.17
2022-09-09T10:20:00.096Z,995.21
2022-09-09T10:25:00.105Z,995.15
2022-09-09T10:30:00.101Z,995.22
2022-09-09T10:35:00.103Z,995.2
2022-09-09T10:40:00.189Z,995.07
2022-09-09T10:45:00.091Z,995.09
2022-09-09T10:50:00.129Z,994.99
2022-09-09T10:55:00.123Z,995
2022-09-09T11:00:00.102Z,995.1
2022-09-09T11:05:00.106Z,994.99
2022-09-09T11:10:00.105Z,994.97
2022-09-09T11:15:00.102Z,994.89
2022-09-09T11:20:00.113Z,994.97
2022-09-09T11:25:00.178Z,995.01
2022-09-09T11:30:00.125Z,994.89
2022-09-09T11:35:00.110Z,994.78
2022-09-09T11:40:00.240Z,994.81
2022-09-09T11:45:00.104Z,994.75
2022-09-09T11:50:00.102Z,994.68
2022-09-09T11:55:00.120Z,994.68
2022-09-09T12:00:00.172Z,994.67
2022-09-09T12:05:00.159Z,994.67
2022-09-09T12:10:00.099Z,994.71
2022-09-09T12:15:00.119Z,994.65
2022-09-09T12:20:00.101Z,994.68
2022-09-09T12:25:00.090Z,994.63
2022-09-09T12:30:00.182Z,994.54
2022-09-09T12:35:00.101Z,994.53
2022-09-09T12:40:00.154Z,994.46
2022-09-09T12:45:00.113Z,994.49
2022-09-09T12:50:00.077Z,994.51
2022-09-09T12:55:00.107Z,994.44
2022-09-09T13:00:00.133Z,994.34
2022-09-09T13:05:00.498Z,994.36
2022-09-09T13:10:00.169Z,994.3
2022-09-09T13:15:00.154Z,994.3
2022-09-09T13:20:00.149Z,994.26
2022-09-09T13:25:00.090Z,994.3
2022-09-09T13:30:00.141Z,994.19
2022-09-09T13:35:00.163Z,994.16
2022-09-09T13:40:00.359Z,994.3
2022-09-09T13:45:00.121Z,994.2
2022-09-09T13:50:00.192Z,994.21
2022-09-09T13:55:00.120Z,994.15
2022-09-09T14:00:07.429Z,994.23
2022-09-09T14:05:00.107Z,994.24
2022-09-09T14:10:00.127Z,994.24
2022-09-09T14:15:00.150Z,994.65
2022-09-09T14:20:00.110Z,994.83
2022-09-09T14:25:00.095Z,994.52
2022-09-09T14:30:00.202Z,994.49
2022-09-09T14:35:00.106Z,994.31
2022-09-09T14:40:00.200Z,994.33
2022-09-09T14:45:00.122Z,994.34
2022-09-09T14:50:00.127Z,994.27
2022-09-09T14:55:00.119Z,994.22
2022-09-09T15:00:00.167Z,994.19
2022-09-09T15:05:00.098Z,994.23
2022-09-09T15:10:00.110Z,994.24
2022-09-09T15:15:00.110Z,994.24
2022-09-09T15:20:00.080Z,994.32
2022-09-09T15:25:00.077Z,994.29
2022-09-09T15:30:00.156Z,994.35
2022-09-09T15:35:00.142Z,994.28
2022-09-09T15:40:00.169Z,994.26
2022-09-09T15:45:00.085Z,994.21
2022-09-09T15:50:00.115Z,994.32
2022-09-09T15:55:00.112Z,994.34
2022-09-09T16:00:00.131Z,994.21
2022-09-09T16:05:00.086Z,994.26
2022-09-09T16:10:00.102Z,994.2
2022-09-09T16:15:00.107Z,994.24
2022-09-09T16:20:00.087Z,994.23
2022-09-09T16:25:00.079Z,994.2
2022-09-09T16:30:00.109Z,994.15
2022-09-09T16:35:00.119Z,994.18
2022-09-09T16:40:00.220Z,994.19
2022-09-09T16:45:00.085Z,994.18
2022-09-09T16:50:00.081Z,994.13
2022-09-09T16:55:00.132Z,994.15
2022-09-09T17:00:00.147Z,994.23
2022-09-09T17:05:00.087Z,994.31
2022-09-09T17:10:00.087Z,994.33
2022-09-09T17:15:00.099Z,994.43
2022-09-09T17:20:00.094Z,994.46
2022-09-09T17:25:00.108Z,994.43
2022-09-09T17:30:00.143Z,994.42
2022-09-09T17:35:00.141Z,994.42
2022-09-09T17:40:00.269Z,994.52
2022-09-09T17:45:00.086Z,994.62
2022-09-09T17:50:00.123Z,994.63
2022-09-09T17:55:00.124Z,994.52
2022-09-09T18:00:00.171Z,994.46
2022-09-09T18:05:00.157Z,994.51
2022-09-09T18:35:00.141Z,994.89
2022-09-09T18:40:00.237Z,994.87
2022-09-09T18:45:00.124Z,994.91
2022-09-09T18:50:00.101Z,994.93
2022-09-09T18:55:00.102Z,994.96
2022-09-09T19:00:00.145Z,995.07
2022-09-09T19:05:00.154Z,995.17
2022-09-09T19:10:00.101Z,995.18
2022-09-09T19:15:00.113Z,995.18
2022-09-09T19:20:00.097Z,995.27
2022-09-09T19:25:00.114Z,995.19
2022-09-09T19:30:00.125Z,995.32
2022-09-09T19:35:00.139Z,995.32
2022-09-09T19:40:00.170Z,995.35
2022-09-09T19:45:00.074Z,995.34
2022-09-09T19:50:00.146Z,995.36
2022-09-09T19:55:00.112Z,995.36
2022-09-09T20:00:00.131Z,995.48
2022-09-09T20:05:00.123Z,995.52
2022-09-09T20:10:00.109Z,995.43
2022-09-09T20:15:00.126Z,995.55
2022-09-09T20:20:00.104Z,995.52
2022-09-09T20:25:00.083Z,995.53
2022-09-09T20:30:00.144Z,995.54
2022-09-09T20:35:00.135Z,995.55
2022-09-09T20:40:00.195Z,995.67
2022-09-09T20:45:00.101Z,995.69
2022-09-09T20:50:00.132Z,995.7
2022-09-09T20:55:00.109Z,995.71
2022-09-09T21:00:00.120Z,995.75
2022-09-09T21:10:00.091Z,995.66
2022-09-09T21:15:00.116Z,995.64
2022-09-09T21:20:00.106Z,995.52
2022-09-09T21:25:00.097Z,995.56
2022-09-09T21:30:00.123Z,995.57
2022-09-09T21:35:00.108Z,995.64
2022-09-09T21:40:00.145Z,995.61
2022-09-09T21:45:00.102Z,995.68
2022-09-09T21:50:00.095Z,995.61
2022-09-09T21:55:00.129Z,995.57
2022-09-09T22:00:00.148Z,995.51
2022-09-09T22:05:00.088Z,995.64
2022-09-09T22:10:00.111Z,995.57
2022-09-09T22:15:00.138Z,995.65
2022-09-09T22:20:00.083Z,995.52
2022-09-09T22:25:00.091Z,995.49
2022-09-09T22:30:00.149Z,995.44
2022-09-09T22:35:00.110Z,995.48
2022-09-09T22:40:00.106Z,995.54
2022-09-09T22:45:00.086Z,995.67
2022-09-09T22:50:00.100Z,995.67
2022-09-09T22:55:00.147Z,995.61
2022-09-09T23:00:00.111Z,995.78
2022-09-09T23:05:00.108Z,995.72
2022-09-09T23:10:00.105Z,995.71
2022-09-09T23:15:00.119Z,995.71
2022-09-09T23:20:00.091Z,995.66
2022-09-09T23:25:00.101Z,995.71
2022-09-09T23:30:00.103Z,995.55
2022-09-09T23:35:00.140Z,995.56
2022-09-09T23:40:00.177Z,995.57
2022-09-09T23:45:00.096Z,995.48
2022-09-09T23:50:00.129Z,995.29
2022-09-09T23:55:00.115Z,995.26
